createdAt,value
2022-12-20T00:01:43.463Z,94667.00
2022-12-20T00:04:12.716Z,94671.00
2022-12-20T00:06:41.475Z,94679.00
2022-12-20T00:09:09.697Z,94693.00
2022-12-20T00:11:40.125Z,94705.00
2022-12-20T00:14:09.204Z,94694.00
2022-12-20T00:16:37.196Z,94694.00
2022-12-20T00:19:06.233Z,94694.00
2022-12-20T00:21:35.893Z,94684.00
2022-12-20T00:24:05.719Z,94678.00
2022-12-20T00:26:34.627Z,94675.00
2022-12-20T00:29:01.895Z,94664.00
2022-12-20T00:31:31.349Z,94666.00
2022-12-20T00:34:02.173Z,94670.00
2022-12-20T00:36:32.898Z,94668.00
2022-12-20T00:39:02.835Z,94673.00
2022-12-20T00:41:36.542Z,94674.00
2022-12-20T00:44:04.781Z,94675.00
2022-12-20T00:46:35.526Z,94676.00
2022-12-20T00:49:09.668Z,94675.00
2022-12-20T00:51:36.535Z,94666.00
2022-12-20T00:54:05.877Z,94677.00
2022-12-20T00:56:35.214Z,94666.00
2022-12-20T00:59:02.167Z,94662.00
2022-12-20T01:01:35.687Z,94670.00
2022-12-20T01:04:03.538Z,94667.00
2022-12-20T01:06:31.322Z,94667.00
2022-12-20T01:08:59.456Z,94663.00
2022-12-20T01:11:34.574Z,94675.00
2022-12-20T01:14:18.201Z,94677.00
2022-12-20T01:16:48.248Z,94667.00
2022-12-20T01:19:18.332Z,94658.00
2022-12-20T01:21:45.413Z,94660.00
2022-12-20T01:24:20.543Z,94670.00
2022-12-20T01:26:50.159Z,94674.00
2022-12-20T01:29:17.454Z,94667.00
2022-12-20T01:31:45.055Z,94673.00
2022-12-20T01:34:14.475Z,94663.00
2022-12-20T01:36:44.782Z,94661.00
2022-12-20T01:39:16.342Z,94662.00
2022-12-20T01:41:46.291Z,94672.00
2022-12-20T01:44:19.354Z,94671.00
2022-12-20T01:46:52.348Z,94668.00
2022-12-20T01:49:25.066Z,94669.00
2022-12-20T01:52:16.044Z,94660.00
2022-12-20T01:55:01.002Z,94658.00
2022-12-20T01:57:51.641Z,94656.00
2022-12-20T02:00:20.376Z,94647.00
2022-12-20T02:02:50.603Z,94640.00
2022-12-20T02:05:25.452Z,94641.00
2022-12-20T02:07:56.825Z,94648.00
2022-12-20T02:10:31.146Z,94619.00
2022-12-20T02:13:15.776Z,94636.00
2022-12-20T02:15:49.080Z,94630.00
2022-12-20T02:18:37.883Z,94621.00
2022-12-20T02:21:39.614Z,94624.00
2022-12-20T02:24:23.944Z,94635.00
2022-12-20T02:26:53.432Z,94620.00
2022-12-20T02:30:00.776Z,94634.00
2022-12-20T02:33:04.121Z,94626.00
2022-12-20T02:35:39.543Z,94627.00
2022-12-20T02:38:47.253Z,94621.00
2022-12-20T02:41:56.268Z,94625.00
2022-12-20T02:44:47.358Z,94630.00
2022-12-20T02:47:31.140Z,94625.00
2022-12-20T02:49:58.206Z,94629.00
2022-12-20T02:52:27.853Z,94631.00
2022-12-20T02:54:55.407Z,94628.00
2022-12-20T02:57:47.816Z,94621.00
2022-12-20T03:00:19.397Z,94627.00
2022-12-20T03:03:06.311Z,94613.00
2022-12-20T03:05:39.821Z,94614.00
2022-12-20T03:08:09.137Z,94608.00
2022-12-20T03:10:35.973Z,94592.00
2022-12-20T03:13:02.890Z,94600.00
2022-12-20T03:15:29.814Z,94581.00
2022-12-20T03:18:03.811Z,94598.00
2022-12-20T03:20:33.114Z,94597.00
2022-12-20T03:23:02.568Z,94595.00
2022-12-20T03:25:32.523Z,94600.00
2022-12-20T03:28:03.916Z,94603.00
2022-12-20T03:30:35.943Z,94605.00
2022-12-20T03:33:02.865Z,94599.00
2022-12-20T03:35:29.988Z,94603.00
2022-12-20T03:37:59.321Z,94595.00
2022-12-20T03:40:26.275Z,94595.00
2022-12-20T03:42:53.216Z,94588.00
2022-12-20T03:45:20.135Z,94590.00
2022-12-20T03:47:50.036Z,94576.00
2022-12-20T03:50:21.665Z,94588.00
2022-12-20T03:52:48.401Z,94590.00
2022-12-20T03:55:17.722Z,94596.00
2022-12-20T03:57:44.625Z,94588.00
2022-12-20T04:00:15.445Z,94583.00
2022-12-20T04:02:42.649Z,94579.00
2022-12-20T04:05:12.275Z,94580.00
2022-12-20T04:07:39.218Z,94577.00
2022-12-20T04:10:09.255Z,94568.00
2022-12-20T04:12:36.174Z,94562.00
2022-12-20T04:15:03.560Z,94574.00
2022-12-20T04:17:32.665Z,94583.00
2022-12-20T04:20:18.707Z,94578.00
2022-12-20T04:22:50.768Z,94578.00
2022-12-20T04:25:22.842Z,94579.00
2022-12-20T04:27:49.784Z,94580.00
2022-12-20T04:30:16.803Z,94582.00
2022-12-20T04:32:43.719Z,94585.00
2022-12-20T04:35:12.944Z,94579.00
2022-12-20T04:37:39.796Z,94579.00
2022-12-20T04:40:10.192Z,94575.00
2022-12-20T04:42:37.265Z,94577.00
2022-12-20T04:45:07.089Z,94575.00
2022-12-20T04:47:34.024Z,94565.00
2022-12-20T04:50:00.917Z,94575.00
2022-12-20T04:52:48.185Z,94569.00
2022-12-20T04:55:15.737Z,94565.00
2022-12-20T04:57:42.571Z,94569.00
2022-12-20T05:00:10.219Z,94570.00
2022-12-20T05:02:37.224Z,94567.00
2022-12-20T05:05:07.228Z,94565.00
2022-12-20T05:07:36.451Z,94554.00
2022-12-20T05:10:04.214Z,94562.00
2022-12-20T05:12:31.269Z,94563.00
2022-12-20T05:15:02.524Z,94563.00
2022-12-20T05:17:29.459Z,94551.00
2022-12-20T05:19:56.452Z,94550.00
2022-12-20T05:22:41.775Z,94550.00
2022-12-20T05:25:31.619Z,94552.00
2022-12-20T05:27:58.895Z,94549.00
2022-12-20T05:30:26.298Z,94536.00
2022-12-20T05:32:55.756Z,94545.00
2022-12-20T05:35:25.205Z,94547.00
2022-12-20T05:37:52.392Z,94536.00
2022-12-20T05:40:22.441Z,94532.00
2022-12-20T05:42:52.032Z,94532.00
2022-12-20T05:45:18.916Z,94532.00
2022-12-20T05:47:45.821Z,94517.00
2022-12-20T05:50:18.477Z,94522.00
2022-12-20T05:52:53.064Z,94526.00
2022-12-20T05:55:22.174Z,94518.00
2022-12-20T05:57:53.685Z,94529.00
2022-12-20T06:00:20.596Z,94525.00
2022-12-20T06:02:47.636Z,94529.00
2022-12-20T06:05:16.934Z,94533.00
2022-12-20T06:07:44.128Z,94526.00
2022-12-20T06:10:11.809Z,94536.00
2022-12-20T06:12:40.997Z,94520.00
2022-12-20T06:15:09.228Z,94525.00
2022-12-20T06:17:36.054Z,94523.00
2022-12-20T06:20:06.260Z,94519.00
2022-12-20T06:22:33.390Z,94515.00
2022-12-20T06:25:00.305Z,94524.00
2022-12-20T06:27:29.640Z,94517.00
2022-12-20T06:29:56.504Z,94517.00
2022-12-20T06:32:23.411Z,94519.00
2022-12-20T06:34:53.730Z,94511.00
2022-12-20T06:37:20.611Z,94515.00
2022-12-20T06:39:47.518Z,94513.00
2022-12-20T06:42:17.068Z,94508.00
2022-12-20T06:44:43.987Z,94498.00
2022-12-20T06:47:11.483Z,94501.00
2022-12-20T06:49:38.357Z,94491.00
2022-12-20T06:52:05.508Z,94495.00
2022-12-20T06:54:32.511Z,94495.00
2022-12-20T06:56:59.445Z,94507.00
2022-12-20T06:59:26.693Z,94508.00
2022-12-20T07:01:53.795Z,94512.00
2022-12-20T07:04:21.288Z,94517.00
2022-12-20T07:06:48.246Z,94516.00
2022-12-20T07:09:15.249Z,94513.00
2022-12-20T07:11:44.405Z,94510.00
2022-12-20T07:14:11.462Z,94517.00
2022-12-20T07:16:38.512Z,94517.00
2022-12-20T07:19:11.572Z,94511.00
2022-12-20T07:21:38.739Z,94516.00
2022-12-20T07:24:08.751Z,94504.00
2022-12-20T07:26:35.852Z,94514.00
2022-12-20T07:29:11.935Z,94519.00
2022-12-20T07:31:42.097Z,94509.00
2022-12-20T07:34:11.273Z,94510.00
2022-12-20T07:36:38.396Z,94517.00
2022-12-20T07:39:07.537Z,94509.00
2022-12-20T07:41:35.478Z,94529.00
2022-12-20T07:44:02.436Z,94518.00
2022-12-20T07:46:29.889Z,94525.00
2022-12-20T07:48:56.839Z,94503.00
2022-12-20T07:51:37.183Z,94503.00
2022-12-20T07:54:14.273Z,94502.00
2022-12-20T07:56:47.098Z,94508.00
2022-12-20T07:59:21.974Z,94509.00
2022-12-20T08:01:49.623Z,94503.00
2022-12-20T08:04:21.500Z,94516.00
2022-12-20T08:06:50.437Z,94506.00
2022-12-20T08:09:17.615Z,94510.00
2022-12-20T08:11:47.880Z,94506.00
2022-12-20T08:14:17.844Z,94503.00
2022-12-20T08:16:44.941Z,94506.00
2022-12-20T08:19:14.118Z,94515.00
2022-12-20T08:21:43.458Z,94502.00
2022-12-20T08:24:10.378Z,94498.00
2022-12-20T08:26:42.004Z,94498.00
2022-12-20T08:29:09.010Z,94497.00
2022-12-20T08:31:49.422Z,94489.00
2022-12-20T08:34:21.673Z,94481.00
2022-12-20T08:36:48.505Z,94480.00
2022-12-20T08:39:15.423Z,94477.00
2022-12-20T08:41:46.035Z,94471.00
2022-12-20T08:44:15.465Z,94478.00
2022-12-20T08:46:42.531Z,94457.00
2022-12-20T08:49:12.097Z,94469.00
2022-12-20T08:51:42.066Z,94463.00
2022-12-20T08:54:09.183Z,94464.00
2022-12-20T08:56:38.211Z,94482.00
2022-12-20T08:59:12.286Z,94483.00
2022-12-20T09:01:39.254Z,94494.00
2022-12-20T09:04:06.310Z,94489.00
2022-12-20T09:06:35.671Z,94490.00
2022-12-20T09:09:07.087Z,94483.00
2022-12-20T09:11:36.468Z,94477.00
2022-12-20T09:14:03.712Z,94477.00
2022-12-20T09:16:32.797Z,94492.00
2022-12-20T09:19:05.881Z,94501.00
2022-12-20T09:21:34.295Z,94500.00
2022-12-20T09:24:01.183Z,94495.00
2022-12-20T09:26:28.138Z,94497.00
2022-12-20T09:28:55.317Z,94486.00
2022-12-20T09:31:25.418Z,94481.00
2022-12-20T09:34:00.171Z,94478.00
2022-12-20T09:36:29.556Z,94478.00
2022-12-20T09:39:01.529Z,94474.00
2022-12-20T09:41:34.698Z,94468.00
2022-12-20T09:44:26.022Z,94469.00
2022-12-20T09:47:11.973Z,94469.00
2022-12-20T09:49:44.646Z,94474.00
2022-12-20T09:53:01.290Z,94473.00
2022-12-20T09:55:48.908Z,94460.00
2022-12-20T09:58:56.331Z,94450.00
2022-12-20T10:01:29.946Z,94458.00
2022-12-20T10:04:06.714Z,94451.00
2022-12-20T10:06:52.486Z,94449.00
2022-12-20T10:10:06.227Z,94454.00
2022-12-20T10:12:46.633Z,94436.00
2022-12-20T10:15:37.592Z,94440.00
2022-12-20T10:18:48.846Z,94426.00
2022-12-20T10:21:35.827Z,94428.00
2022-12-20T10:24:20.473Z,94422.00
2022-12-20T10:26:53.618Z,94411.00
2022-12-20T10:29:21.284Z,94407.00
2022-12-20T10:32:00.024Z,94414.00
2022-12-20T10:34:36.547Z,94404.00
2022-12-20T10:37:16.170Z,94407.00
2022-12-20T10:39:50.624Z,94409.00
2022-12-20T10:42:38.900Z,94398.00
2022-12-20T10:45:35.710Z,94404.00
2022-12-20T10:48:07.742Z,94391.00
2022-12-20T10:50:34.635Z,94390.00
2022-12-20T10:53:10.603Z,94384.00
2022-12-20T10:55:42.438Z,94379.00
2022-12-20T10:58:37.152Z,94372.00
2022-12-20T11:01:18.932Z,94375.00
2022-12-20T11:03:54.637Z,94363.00
2022-12-20T11:06:29.835Z,94353.00
2022-12-20T11:09:36.208Z,94351.00
2022-12-20T11:12:16.835Z,94349.00
2022-12-20T11:14:47.011Z,94348.00
2022-12-20T11:17:22.243Z,94348.00
2022-12-20T11:20:05.310Z,94346.00
2022-12-20T11:23:12.031Z,94340.00
2022-12-20T11:25:54.154Z,94346.00
2022-12-20T11:28:26.810Z,94333.00
2022-12-20T11:31:14.934Z,94330.00
2022-12-20T11:34:15.639Z,94339.00
2022-12-20T11:37:19.377Z,94327.00
2022-12-20T11:40:02.012Z,94312.00
2022-12-20T11:42:34.740Z,94312.00
2022-12-20T11:45:41.640Z,94282.00
2022-12-20T11:48:47.893Z,94286.00
2022-12-20T11:51:34.112Z,94275.00
2022-12-20T11:54:28.684Z,94280.00
2022-12-20T11:57:10.386Z,94261.00
2022-12-20T11:59:57.564Z,94280.00
2022-12-20T12:02:54.743Z,94285.00
2022-12-20T12:05:45.458Z,94290.00
2022-12-20T12:08:19.782Z,94276.00
2022-12-20T12:11:02.941Z,94277.00
2022-12-20T12:13:36.516Z,94262.00
2022-12-20T12:16:24.543Z,94260.00
2022-12-20T12:18:54.670Z,94273.00
2022-12-20T12:21:56.313Z,94248.00
2022-12-20T12:24:44.217Z,94254.00
2022-12-20T12:27:27.292Z,94261.00
2022-12-20T12:29:58.470Z,94265.00
2022-12-20T12:32:46.887Z,94254.00
2022-12-20T12:35:53.668Z,94249.00
2022-12-20T12:38:46.909Z,94263.00
2022-12-20T12:41:30.837Z,94258.00
2022-12-20T12:44:47.960Z,94246.00
2022-12-20T12:47:40.361Z,94254.00
2022-12-20T12:50:24.772Z,94242.00
2022-12-20T12:53:05.472Z,94237.00
2022-12-20T12:55:58.079Z,94242.00
2022-12-20T12:58:38.215Z,94239.00
2022-12-20T13:02:06.838Z,94250.00
2022-12-20T13:04:56.931Z,94249.00
2022-12-20T13:07:35.534Z,94241.00
2022-12-20T13:10:09.564Z,94236.00
2022-12-20T13:12:39.484Z,94239.00
2022-12-20T13:15:21.446Z,94221.00
2022-12-20T13:17:50.573Z,94233.00
2022-12-20T13:20:30.397Z,94219.00
2022-12-20T13:23:10.348Z,94220.00
2022-12-20T13:25:51.977Z,94207.00
2022-12-20T13:28:24.867Z,94211.00
2022-12-20T13:31:04.891Z,94200.00
2022-12-20T13:33:54.498Z,94210.00
2022-12-20T13:36:37.205Z,94192.00
2022-12-20T13:39:24.052Z,94186.00
2022-12-20T13:42:38.150Z,94190.00
2022-12-20T13:45:14.477Z,94190.00
2022-12-20T13:47:51.030Z,94176.00
2022-12-20T13:50:26.179Z,94178.00
2022-12-20T13:52:57.415Z,94171.00
2022-12-20T13:55:35.227Z,94177.00
2022-12-20T13:58:14.016Z,94186.00
2022-12-20T14:00:41.286Z,94179.00
2022-12-20T14:03:17.968Z,94177.00
2022-12-20T14:05:47.816Z,94167.00
2022-12-20T14:08:22.876Z,94169.00
2022-12-20T14:10:57.863Z,94179.00
2022-12-20T14:13:27.191Z,94166.00
2022-12-20T14:15:56.196Z,94168.00
2022-12-20T14:18:26.217Z,94159.00
2022-12-20T14:21:02.748Z,94161.00
2022-12-20T14:23:38.370Z,94170.00
2022-12-20T14:26:11.001Z,94182.00
2022-12-20T14:28:47.103Z,94173.00
2022-12-20T14:31:34.472Z,94176.00
2022-12-20T14:34:11.732Z,94173.00
2022-12-20T14:36:42.741Z,94171.00
2022-12-20T14:39:34.167Z,94182.00
2022-12-20T14:42:19.523Z,94167.00
2022-12-20T14:44:49.014Z,94164.00
2022-12-20T14:47:28.207Z,94164.00
2022-12-20T14:50:06.734Z,94176.00
2022-12-20T14:52:42.267Z,94182.00
2022-12-20T14:55:21.213Z,94177.00
2022-12-20T14:58:24.507Z,94161.00
2022-12-20T15:01:27.185Z,94179.00
2022-12-20T15:04:00.318Z,94166.00
2022-12-20T15:06:42.624Z,94183.00
2022-12-20T15:09:09.648Z,94193.00
2022-12-20T15:11:38.410Z,94191.00
2022-12-20T15:14:46.157Z,94183.00
2022-12-20T15:17:16.370Z,94165.00
2022-12-20T15:19:44.028Z,94182.00
2022-12-20T15:22:19.159Z,94183.00
2022-12-20T15:24:48.404Z,94155.00
2022-12-20T15:27:16.097Z,94165.00
2022-12-20T15:29:45.229Z,94162.00
2022-12-20T15:32:29.766Z,94148.00
2022-12-20T15:34:56.953Z,94157.00
2022-12-20T15:37:23.891Z,94157.00
2022-12-20T15:39:50.893Z,94167.00
2022-12-20T15:42:23.007Z,94187.00
2022-12-20T15:44:53.021Z,94179.00
2022-12-20T15:47:19.888Z,94173.00
2022-12-20T15:49:50.467Z,94189.00
2022-12-20T15:52:23.441Z,94194.00
2022-12-20T15:54:50.881Z,94183.00
2022-12-20T15:57:17.906Z,94188.00
2022-12-20T16:00:03.738Z,94186.00
2022-12-20T16:02:34.878Z,94188.00
2022-12-20T16:05:04.994Z,94189.00
2022-12-20T16:07:31.969Z,94178.00
2022-12-20T16:09:58.803Z,94194.00
2022-12-20T16:12:37.371Z,94183.00
2022-12-20T16:15:10.396Z,94179.00
2022-12-20T16:17:37.304Z,94170.00
2022-12-20T16:20:05.511Z,94192.00
2022-12-20T16:22:34.501Z,94188.00
2022-12-20T16:25:01.669Z,94198.00
2022-12-20T16:27:28.577Z,94201.00
2022-12-20T16:29:57.992Z,94184.00
2022-12-20T16:32:29.413Z,94189.00
2022-12-20T16:34:58.379Z,94180.00
2022-12-20T16:37:25.267Z,94176.00
2022-12-20T16:39:54.188Z,94161.00
2022-12-20T16:42:22.468Z,94165.00
2022-12-20T16:44:53.929Z,94159.00
2022-12-20T16:47:21.691Z,94171.00
2022-12-20T16:49:52.953Z,94165.00
2022-12-20T16:52:24.562Z,94152.00
2022-12-20T16:54:53.998Z,94165.00
2022-12-20T16:57:21.440Z,94149.00
2022-12-20T16:59:53.477Z,94153.00
2022-12-20T17:02:29.528Z,94159.00
2022-12-20T17:04:57.084Z,94162.00
2022-12-20T17:07:26.708Z,94159.00
2022-12-20T17:10:12.433Z,94153.00
2022-12-20T17:12:39.607Z,94151.00
2022-12-20T17:15:10.084Z,94148.00
2022-12-20T17:17:36.985Z,94152.00
2022-12-20T17:20:04.093Z,94154.00
2022-12-20T17:22:31.009Z,94144.00
2022-12-20T17:24:57.904Z,94148.00
2022-12-20T17:27:24.970Z,94138.00
2022-12-20T17:29:52.303Z,94146.00
2022-12-20T17:32:25.857Z,94146.00
2022-12-20T17:34:53.207Z,94147.00
2022-12-20T17:37:21.111Z,94147.00
2022-12-20T17:39:48.433Z,94136.00
2022-12-20T17:42:17.913Z,94142.00
2022-12-20T17:44:47.345Z,94145.00
2022-12-20T17:47:14.260Z,94150.00
2022-12-20T17:49:44.130Z,94145.00
2022-12-20T17:52:15.011Z,94139.00
2022-12-20T17:54:42.109Z,94139.00
2022-12-20T17:57:16.491Z,94135.00
2022-12-20T17:59:44.245Z,94140.00
2022-12-20T18:02:28.120Z,94149.00
2022-12-20T18:04:57.984Z,94136.00
2022-12-20T18:07:28.375Z,94142.00
2022-12-20T18:09:57.566Z,94141.00
2022-12-20T18:12:28.565Z,94132.00
2022-12-20T18:14:57.279Z,94133.00
2022-12-20T18:17:24.283Z,94130.00
2022-12-20T18:19:52.681Z,94118.00
2022-12-20T18:22:20.109Z,94124.00
2022-12-20T18:24:47.029Z,94111.00
2022-12-20T18:27:14.822Z,94122.00
2022-12-20T18:29:41.886Z,94132.00
2022-12-20T18:32:08.942Z,94132.00
2022-12-20T18:34:40.477Z,94084.00
2022-12-20T18:37:13.643Z,94123.00
2022-12-20T18:39:42.735Z,94116.00
2022-12-20T18:42:12.305Z,94115.00
2022-12-20T18:44:41.758Z,94111.00
2022-12-20T18:47:11.314Z,94121.00
2022-12-20T18:49:38.423Z,94118.00
2022-12-20T18:52:05.724Z,94120.00
2022-12-20T18:54:32.921Z,94120.00
2022-12-20T18:56:59.879Z,94101.00
2022-12-20T18:59:27.086Z,94106.00
2022-12-20T19:01:56.790Z,94114.00
2022-12-20T19:04:25.096Z,94112.00
2022-12-20T19:06:52.494Z,94106.00
2022-12-20T19:09:19.550Z,94094.00
2022-12-20T19:11:56.361Z,94098.00
2022-12-20T19:14:24.596Z,94091.00
2022-12-20T19:16:54.287Z,94094.00
2022-12-20T19:19:22.634Z,94086.00
2022-12-20T19:21:49.714Z,94088.00
2022-12-20T19:24:18.796Z,94098.00
2022-12-20T19:26:45.929Z,94091.00
2022-12-20T19:29:12.951Z,94090.00
2022-12-20T19:31:44.759Z,94099.00
2022-12-20T19:34:13.788Z,94075.00
2022-12-20T19:36:42.948Z,94097.00
2022-12-20T19:39:20.866Z,94101.00
2022-12-20T19:42:15.503Z,94102.00
2022-12-20T19:44:38.023Z,94101.00
2022-12-20T19:47:05.217Z,94090.00
2022-12-20T19:49:32.361Z,94093.00
2022-12-20T19:51:59.438Z,94088.00
2022-12-20T19:54:29.064Z,94090.00
2022-12-20T19:56:56.119Z,94096.00
2022-12-20T19:59:25.936Z,94086.00
2022-12-20T20:01:53.330Z,94082.00
2022-12-20T20:04:20.339Z,94087.00
2022-12-20T20:06:49.688Z,94104.00
2022-12-20T20:09:16.613Z,94089.00
2022-12-20T20:11:43.644Z,94093.00
2022-12-20T20:14:10.803Z,94090.00
2022-12-20T20:16:38.402Z,94100.00
2022-12-20T20:19:06.186Z,94104.00
2022-12-20T20:21:36.308Z,94099.00
2022-12-20T20:24:03.793Z,94107.00
2022-12-20T20:26:31.874Z,94091.00
2022-12-20T20:29:00.895Z,94079.00
2022-12-20T20:31:28.378Z,94087.00
2022-12-20T20:33:58.215Z,94095.00
2022-12-20T20:36:28.229Z,94096.00
2022-12-20T20:38:55.398Z,94080.00
2022-12-20T20:41:22.874Z,94094.00
2022-12-20T20:43:50.029Z,94083.00
2022-12-20T20:46:18.212Z,94078.00
2022-12-20T20:48:45.844Z,94083.00
2022-12-20T20:51:13.357Z,94085.00
2022-12-20T20:53:40.697Z,94087.00
2022-12-20T20:56:11.366Z,94090.00
2022-12-20T20:58:38.564Z,94089.00
2022-12-20T21:01:08.647Z,94080.00
2022-12-20T21:03:35.955Z,94091.00
2022-12-20T21:08:52.844Z,94093.00
2022-12-20T21:11:20.079Z,94049.00
2022-12-20T21:13:47.254Z,94086.00
2022-12-20T21:16:22.520Z,94086.00
2022-12-20T21:18:55.707Z,94082.00
2022-12-20T21:21:27.134Z,94080.00
2022-12-20T21:23:55.756Z,94104.00
2022-12-20T21:26:25.459Z,94099.00
2022-12-20T21:29:01.106Z,94092.00
2022-12-20T21:31:30.909Z,94096.00
2022-12-20T21:33:58.181Z,94074.00
2022-12-20T21:36:27.863Z,94100.00
2022-12-20T21:38:57.136Z,94107.00
2022-12-20T21:41:28.637Z,94104.00
2022-12-20T21:43:56.956Z,94105.00
2022-12-20T21:46:28.027Z,94105.00
2022-12-20T21:48:55.329Z,94122.00
2022-12-20T21:51:27.071Z,94119.00
2022-12-20T21:54:04.963Z,94106.00
2022-12-20T21:56:36.040Z,94101.00
2022-12-20T21:59:06.428Z,94080.00
2022-12-20T22:01:34.048Z,94086.00
2022-12-20T22:04:10.195Z,94071.00
2022-12-20T22:06:40.196Z,94071.00
2022-12-20T22:09:11.893Z,94079.00
2022-12-20T22:11:41.849Z,94097.00
2022-12-20T22:14:14.551Z,94092.00
2022-12-20T22:16:44.272Z,94089.00
2022-12-20T22:19:14.740Z,94085.00
2022-12-20T22:21:42.314Z,94095.00
2022-12-20T22:24:12.310Z,94101.00
2022-12-20T22:26:41.116Z,94080.00
2022-12-20T22:29:09.297Z,94092.00
2022-12-20T22:31:37.837Z,94085.00
2022-12-20T22:34:07.650Z,94091.00
2022-12-20T22:36:34.801Z,94085.00
2022-12-20T22:39:04.500Z,94080.00
2022-12-20T22:41:36.737Z,94082.00
2022-12-20T22:44:07.270Z,94092.00
2022-12-20T22:46:34.323Z,94092.00
2022-12-20T22:49:03.998Z,94082.00
2022-12-20T22:51:33.423Z,94090.00
2022-12-20T22:54:00.832Z,94088.00
2022-12-20T22:56:27.978Z,94083.00
2022-12-20T22:58:56.333Z,94087.00
2022-12-20T23:01:24.084Z,94094.00
2022-12-20T23:03:54.373Z,94082.00
2022-12-20T23:06:22.072Z,94094.00
2022-12-20T23:08:56.520Z,94083.00
2022-12-20T23:11:44.741Z,94075.00
2022-12-20T23:14:35.226Z,94082.00
2022-12-20T23:17:09.407Z,94082.00
2022-12-20T23:19:56.050Z,94086.00
2022-12-20T23:22:40.612Z,94089.00
2022-12-20T23:25:13.624Z,94096.00
2022-12-20T23:27:42.909Z,94096.00
2022-12-20T23:30:14.171Z,94093.00
2022-12-20T23:32:47.542Z,94099.00
2022-12-20T23:35:18.363Z,94103.00
2022-12-20T23:37:48.490Z,94110.00
2022-12-20T23:40:18.323Z,94112.00
2022-12-20T23:42:45.702Z,94116.00
2022-12-20T23:45:15.407Z,94115.00
2022-12-20T23:47:44.902Z,94113.00
2022-12-20T23:50:14.179Z,94114.00
2022-12-20T23:52:44.128Z,94112.00
2022-12-20T23:55:13.288Z,94079.00
2022-12-20T23:57:40.519Z,94095.00
